Airfield :
LOGIN :

Register | Disclaimer

   EN    FR    IT 

 










Legend :    VFR   Marginal VFR   IFR   Intensive IFR   Very Intensive IFR
Visi :
Ceiling :
>= 8 km
>= 3000ft
5 to 8 km
1000 to 3000 ft
1500m to 5 km
500 to 1000 ft
800 to 1500m
200 to 500 ft
< 800m
< 200 ft
Symbols :   Thunderstorms  Fog  Heavy snow  Heavy precipitations  Wind > 20 kt
SIGMETs :     Misc.  Thunderstorms  Icing  Turbulence  Mountain Waves  Volcanic Ashes






- Airport Elevation : 302 ft
- IATA code : MAH


LEMH - Menorca

CURRENT METAR :
  • 040530Z 04007KT 010V070 6000 BKN002 23/23 Q1016

EXPIRED METARs :
  • 040508Z 03009KT 6000 BKN002 23/22 Q1015
  • 040430Z 03006KT CAVOK 23/22 Q1016
  • 040330Z AUTO VRB02KT CAVOK 22/20 Q1016
  • 040300Z AUTO VRB02KT 9999 FEW002/// 22/21 Q1016
  • 040230Z AUTO 07004KT CAVOK 23/21 Q1016

TAF TAF LEMH
Valid from the 04 at 03:00 until the 05 at 03:00 UTC


040200Z 0403/0503 03007KT CAVOK TX32/0412Z TN21/0405Z
TEMPO 0406/0409 12007KT
BECMG 0409/0411 22009KT
BECMG 0417/0419 VRB04KT



MET'MAP, your aeronautical weather chart ! - Copyright ORBIFLY December 2007 - Disclaimer

ORBIFLY MET'MAP TEAM :

Programming & Development : Alexandra Zaïnal
Original concept : Baudouin d'Aumeries
Technical & hardware support : Manuel Goepfert
Assistance : Marc-Olivier Méhu




SOURCES & CREDITS :

   NOAA